Time;durP1;ratioP1;P1;durP2;ratioP2;P2;SDS_P1;SDS_P2;PMS_P1;PMS_P2;Temp;Humidity;BMP_temperature;BMP_pressure;BME280_temperature;BME280_humidity;BME280_pressure;Samples;Min_cycle;Max_cycle;Signal;HPM_P1;HPM_P2
2022/02/23 00:01:25;;;;;;;2.17;1.33;;;7.30;99.90;;;;;;4440181;32;20077;-64
2022/02/23 00:03:50;;;;;;;0.70;0.70;;;7.20;99.90;;;;;;4440302;32;20418;-65
2022/02/23 00:06:16;;;;;;;0.50;0.50;;;7.20;99.90;;;;;;4432947;32;20101;-65
2022/02/23 00:08:42;;;;;;;0.95;0.80;;;7.20;99.90;;;;;;4436978;32;20130;-65
2022/02/23 00:11:07;;;;;;;1.08;0.60;;;7.20;99.90;;;;;;4439743;32;20487;-64
2022/02/23 00:13:34;;;;;;;0.40;0.40;;;7.20;99.90;;;;;;4433898;32;20093;-65
2022/02/23 00:15:59;;;;;;;2.90;1.08;;;7.20;99.90;;;;;;4430079;32;20426;-66
2022/02/23 00:18:25;;;;;;;0.40;0.40;;;7.20;99.90;;;;;;4437443;32;20115;-65
2022/02/23 00:20:51;;;;;;;0.82;0.82;;;7.20;99.90;;;;;;4435003;32;20061;-65
2022/02/23 00:23:19;;;;;;;2.00;1.48;;;7.10;99.90;;;;;;4439704;32;20532;-65
2022/02/23 00:25:44;;;;;;;0.50;0.50;;;7.10;99.90;;;;;;4433342;32;20116;-65
2022/02/23 00:28:10;;;;;;;1.75;1.35;;;7.10;99.90;;;;;;4440530;32;20065;-65
2022/02/23 00:30:35;;;;;;;0.77;0.77;;;7.10;99.90;;;;;;4438635;32;20089;-65
2022/02/23 00:33:01;;;;;;;1.15;0.77;;;7.10;99.90;;;;;;4438512;32;20072;-65
2022/02/23 00:35:26;;;;;;;0.30;0.30;;;7.10;99.90;;;;;;4438967;32;20077;-65
2022/02/23 00:37:52;;;;;;;1.55;1.10;;;7.10;99.90;;;;;;4439885;32;20069;-65
2022/02/23 00:40:18;;;;;;;0.40;0.40;;;7.10;99.90;;;;;;4433486;32;20088;-65
2022/02/23 00:42:44;;;;;;;0.52;0.52;;;7.10;99.90;;;;;;4434936;32;20557;-65
2022/02/23 00:45:09;;;;;;;0.80;0.80;;;7.10;99.90;;;;;;4431925;32;20065;-65
2022/02/23 00:47:36;;;;;;;0.60;0.50;;;7.10;99.90;;;;;;4437674;32;20086;-65
2022/02/23 00:50:02;;;;;;;4.25;1.17;;;7.10;99.90;;;;;;4435306;32;20065;-65
2022/02/23 00:52:28;;;;;;;3.40;1.52;;;7.10;99.90;;;;;;4435979;32;20129;-65
2022/02/23 00:54:53;;;;;;;0.82;0.82;;;7.10;99.90;;;;;;4437564;32;20786;-65
2022/02/23 00:57:19;;;;;;;2.83;1.70;;;7.10;99.90;;;;;;4440414;32;20060;-65
2022/02/23 00:59:45;;;;;;;1.05;0.95;;;7.10;99.90;;;;;;4443782;32;20073;-65
2022/02/23 01:02:11;;;;;;;0.50;0.50;;;7.10;99.90;;;;;;4442457;32;20074;-65
2022/02/23 01:04:36;;;;;;;4.82;0.75;;;7.10;99.90;;;;;;4437363;32;20235;-65
2022/02/23 01:07:02;;;;;;;3.25;1.00;;;7.10;99.90;;;;;;4438054;32;20534;-65
2022/02/23 01:09:28;;;;;;;2.58;1.37;;;7.00;99.90;;;;;;4434700;32;20093;-65
2022/02/23 01:11:53;;;;;;;0.47;0.47;;;7.00;99.90;;;;;;4440841;32;20057;-65
2022/02/23 01:14:19;;;;;;;0.32;0.32;;;6.90;99.90;;;;;;4432859;32;20065;-65
2022/02/23 01:16:44;;;;;;;3.40;0.80;;;6.90;99.90;;;;;;4439105;32;20502;-65
2022/02/23 01:19:10;;;;;;;1.20;0.93;;;6.80;99.90;;;;;;4438069;32;20069;-65
2022/02/23 01:21:35;;;;;;;22.33;1.05;;;6.80;99.90;;;;;;4437327;32;20098;-65
2022/02/23 01:24:01;;;;;;;0.30;0.30;;;6.80;99.90;;;;;;4437469;32;20201;-65
2022/02/23 01:26:27;;;;;;;0.40;0.40;;;6.70;99.90;;;;;;4442423;32;20072;-65
2022/02/23 01:28:52;;;;;;;0.50;0.50;;;6.60;99.90;;;;;;4438043;32;20069;-65
2022/02/23 01:31:18;;;;;;;4.28;1.70;;;6.60;99.90;;;;;;4435737;32;20525;-65
2022/02/23 01:33:44;;;;;;;1.17;0.45;;;6.60;99.90;;;;;;4438771;32;20493;-65
2022/02/23 01:36:09;;;;;;;1.30;0.90;;;6.60;99.90;;;;;;4440175;32;20136;-65
2022/02/23 01:38:35;;;;;;;0.40;0.40;;;6.50;99.90;;;;;;4438710;32;20077;-65
2022/02/23 01:41:01;;;;;;;3.95;0.95;;;6.50;99.90;;;;;;4437109;32;20077;-65
2022/02/23 01:43:28;;;;;;;4.50;1.60;;;6.50;99.90;;;;;;4436747;32;20171;-65
2022/02/23 01:45:54;;;;;;;0.47;0.47;;;6.60;99.90;;;;;;4438636;32;20081;-65
2022/02/23 01:48:20;;;;;;;0.40;0.40;;;6.60;99.90;;;;;;4439760;32;21297;-65
2022/02/23 01:50:46;;;;;;;0.65;0.65;;;6.60;99.90;;;;;;4434301;32;20159;-65
2022/02/23 01:53:11;;;;;;;14.85;1.00;;;6.60;99.90;;;;;;4436136;32;20077;-65
2022/02/23 01:55:37;;;;;;;2.37;1.33;;;6.60;99.90;;;;;;4438522;32;20058;-65
2022/02/23 01:58:03;;;;;;;1.83;1.42;;;6.60;99.90;;;;;;4442852;32;20177;-65
2022/02/23 02:00:29;;;;;;;1.15;1.15;;;6.60;99.90;;;;;;4437118;32;20084;-65
2022/02/23 02:02:55;;;;;;;2.85;1.50;;;6.60;99.90;;;;;;4441135;32;20093;-65
2022/02/23 02:05:20;;;;;;;0.45;0.45;;;6.60;99.90;;;;;;4435178;32;20069;-65
2022/02/23 02:07:46;;;;;;;0.30;0.30;;;6.60;99.90;;;;;;4434208;32;20073;-65
2022/02/23 02:10:12;;;;;;;3.55;1.65;;;6.60;99.90;;;;;;4437507;32;20065;-65
2022/02/23 02:12:37;;;;;;;1.75;0.85;;;6.50;99.90;;;;;;4438626;32;20144;-65
2022/02/23 02:15:04;;;;;;;1.40;1.30;;;6.50;99.90;;;;;;4438052;32;20453;-65
2022/02/23 02:17:30;;;;;;;5.18;1.67;;;6.50;99.90;;;;;;4436305;32;20124;-65
2022/02/23 02:19:55;;;;;;;1.77;1.35;;;6.60;99.90;;;;;;4436036;32;20084;-65
2022/02/23 02:22:21;;;;;;;0.50;0.50;;;6.50;99.90;;;;;;4423045;32;20459;-65
2022/02/23 02:24:47;;;;;;;4.22;1.85;;;6.60;99.90;;;;;;4437619;32;20090;-65
2022/02/23 02:27:14;;;;;;;0.90;0.88;;;6.60;99.90;;;;;;4440455;32;20537;-65
2022/02/23 02:29:41;;;;;;;0.65;0.60;;;6.50;99.90;;;;;;4424079;32;20081;-65
2022/02/23 02:32:08;;;;;;;0.47;0.47;;;6.40;99.90;;;;;;4434485;32;20103;-65
2022/02/23 02:34:33;;;;;;;2.20;1.60;;;6.40;99.90;;;;;;4439363;32;20069;-65
2022/02/23 02:36:59;;;;;;;1.15;0.60;;;6.30;99.90;;;;;;4436451;32;20098;-65
2022/02/23 02:39:25;;;;;;;3.35;1.20;;;6.30;99.90;;;;;;4436295;32;21111;-65
2022/02/23 02:41:52;;;;;;;1.65;1.52;;;6.30;99.90;;;;;;4423880;32;20073;-65
2022/02/23 02:44:18;;;;;;;0.50;0.50;;;6.20;99.90;;;;;;4427821;32;20101;-65
2022/02/23 02:46:44;;;;;;;0.40;0.40;;;6.30;99.90;;;;;;4436659;32;20410;-66
2022/02/23 02:49:09;;;;;;;0.73;0.73;;;6.30;99.90;;;;;;4436813;32;20531;-65
2022/02/23 02:51:36;;;;;;;1.58;1.48;;;6.30;99.90;;;;;;4438742;32;20521;-64
2022/02/23 02:54:03;;;;;;;0.73;0.73;;;6.20;99.90;;;;;;4437642;32;20116;-65
2022/02/23 02:56:28;;;;;;;0.85;0.52;;;6.20;99.90;;;;;;4439027;32;20494;-65
2022/02/23 02:58:54;;;;;;;0.88;0.70;;;6.20;99.90;;;;;;4439086;32;20061;-65
2022/02/23 03:01:22;;;;;;;0.65;0.65;;;6.20;99.90;;;;;;4438543;32;20379;-65
2022/02/23 03:03:48;;;;;;;1.75;1.58;;;6.20;99.90;;;;;;4437387;32;20068;-65
2022/02/23 03:06:15;;;;;;;0.70;0.70;;;6.20;99.90;;;;;;4434761;32;20186;-65
2022/02/23 03:08:42;;;;;;;1.12;1.10;;;6.10;99.90;;;;;;4434222;32;20096;-65
2022/02/23 03:11:07;;;;;;;1.48;1.37;;;6.10;99.90;;;;;;4431627;32;20625;-65
2022/02/23 03:13:33;;;;;;;0.60;0.55;;;6.10;99.90;;;;;;4435852;32;20405;-65
2022/02/23 03:15:59;;;;;;;1.02;0.57;;;6.10;99.90;;;;;;4431597;32;20108;-65
2022/02/23 03:18:24;;;;;;;0.30;0.30;;;6.20;99.90;;;;;;4440258;32;20405;-65
2022/02/23 03:20:49;;;;;;;0.60;0.60;;;6.20;99.90;;;;;;4438347;32;20517;-65
2022/02/23 03:23:17;;;;;;;0.30;0.30;;;6.20;99.90;;;;;;4423795;32;20210;-65
2022/02/23 03:25:43;;;;;;;5.18;0.88;;;6.10;99.90;;;;;;4438781;32;20584;-65
2022/02/23 03:28:08;;;;;;;1.20;0.95;;;6.10;99.90;;;;;;4436385;32;20092;-65
2022/02/23 03:30:34;;;;;;;0.82;0.82;;;6.20;99.90;;;;;;4436563;32;20526;-65
2022/02/23 03:32:59;;;;;;;2.20;0.85;;;6.20;99.90;;;;;;4436707;32;20517;-65
2022/02/23 03:35:27;;;;;;;5.62;0.43;;;6.20;99.90;;;;;;4436781;32;20610;-65
2022/02/23 03:37:55;;;;;;;0.40;0.40;;;6.30;99.90;;;;;;4441469;32;20080;-65
2022/02/23 03:40:21;;;;;;;0.82;0.82;;;6.20;99.90;;;;;;4436185;32;20115;-65
2022/02/23 03:42:47;;;;;;;2.00;1.80;;;6.20;99.90;;;;;;4428682;32;20082;-65
2022/02/23 03:45:13;;;;;;;0.60;0.60;;;6.10;99.90;;;;;;4436311;32;20587;-65
2022/02/23 03:47:38;;;;;;;7.53;2.67;;;6.10;99.90;;;;;;4437538;32;20061;-65
2022/02/23 03:50:04;;;;;;;1.40;0.70;;;6.10;99.90;;;;;;4438355;32;20389;-65
2022/02/23 03:52:30;;;;;;;0.50;0.50;;;6.10;99.90;;;;;;4431759;32;20097;-65
2022/02/23 03:54:55;;;;;;;0.50;0.50;;;6.10;99.90;;;;;;4434586;32;20065;-65
2022/02/23 03:57:20;;;;;;;4.05;1.70;;;6.20;99.90;;;;;;4440925;32;20069;-65
2022/02/23 03:59:46;;;;;;;4.70;1.45;;;6.20;99.90;;;;;;4437530;32;20065;-65
2022/02/23 04:02:11;;;;;;;18.80;1.10;;;6.30;99.90;;;;;;4436056;32;20065;-65
2022/02/23 04:04:37;;;;;;;0.43;0.43;;;6.30;99.90;;;;;;4437100;32;20061;-65
2022/02/23 04:07:03;;;;;;;1.58;1.48;;;6.30;99.90;;;;;;4437004;32;20127;-65
2022/02/23 04:09:28;;;;;;;0.82;0.82;;;6.30;99.90;;;;;;4435087;32;20112;-65
2022/02/23 04:11:54;;;;;;;1.98;0.52;;;6.30;99.90;;;;;;4433234;32;20069;-65
2022/02/23 04:14:19;;;;;;;0.85;0.70;;;6.30;99.90;;;;;;4426165;32;20640;-65
2022/02/23 04:16:45;;;;;;;10.43;3.80;;;6.30;99.90;;;;;;4436851;32;20090;-65
2022/02/23 04:19:10;;;;;;;0.50;0.50;;;6.20;99.90;;;;;;4435303;32;20096;-65
2022/02/23 04:21:36;;;;;;;0.47;0.47;;;6.20;99.90;;;;;;4438698;32;20078;-65
2022/02/23 04:24:01;;;;;;;0.40;0.40;;;6.20;99.90;;;;;;4437904;32;20064;-65
2022/02/23 04:26:27;;;;;;;0.45;0.45;;;6.20;99.90;;;;;;4440788;32;20078;-65
2022/02/23 04:28:53;;;;;;;27.90;1.95;;;6.20;99.90;;;;;;4434064;32;20108;-65
2022/02/23 04:31:19;;;;;;;0.50;0.50;;;6.30;99.90;;;;;;4438339;32;20061;-65
2022/02/23 04:33:45;;;;;;;0.30;0.30;;;6.20;99.90;;;;;;4434792;32;20096;-65
2022/02/23 04:36:11;;;;;;;5.25;1.25;;;6.20;99.90;;;;;;4419241;32;20062;-65
2022/02/23 04:38:37;;;;;;;5.47;1.40;;;6.30;99.90;;;;;;4435235;32;20060;-65
2022/02/23 04:41:04;;;;;;;1.55;1.20;;;6.20;99.90;;;;;;4436256;32;20498;-65
2022/02/23 04:43:33;;;;;;;0.73;0.73;;;6.30;99.90;;;;;;4431846;32;20112;-65
2022/02/23 04:46:00;;;;;;;0.43;0.43;;;6.20;99.90;;;;;;4436703;32;20093;-65
2022/02/23 04:48:25;;;;;;;4.12;0.88;;;6.20;99.90;;;;;;4432123;32;20528;-65
2022/02/23 04:50:51;;;;;;;15.27;0.85;;;6.20;99.90;;;;;;4437652;32;20113;-65
2022/02/23 04:53:16;;;;;;;0.70;0.70;;;6.20;99.90;;;;;;4442147;32;20064;-65
2022/02/23 04:55:42;;;;;;;1.50;1.40;;;6.10;99.90;;;;;;4431034;32;20302;-65
2022/02/23 04:58:07;;;;;;;3.15;0.77;;;6.10;99.90;;;;;;4438144;32;20078;-65
2022/02/23 05:00:35;;;;;;;2.75;1.65;;;6.10;99.90;;;;;;4434537;32;20540;-65
2022/02/23 05:03:00;;;;;;;1.10;0.85;;;6.10;99.90;;;;;;4438200;32;20061;-65
2022/02/23 05:05:26;;;;;;;3.40;1.25;;;6.10;99.90;;;;;;4433530;32;20097;-65
2022/02/23 05:07:51;;;;;;;2.55;1.20;;;6.10;99.90;;;;;;4433037;32;20119;-65
2022/02/23 05:10:17;;;;;;;0.40;0.40;;;6.10;99.90;;;;;;4439826;32;20490;-65
2022/02/23 05:12:42;;;;;;;0.82;0.70;;;6.00;99.90;;;;;;4437235;32;20085;-65
2022/02/23 05:15:08;;;;;;;3.78;0.65;;;6.00;99.90;;;;;;4431353;32;20066;-65
2022/02/23 05:17:34;;;;;;;27.10;0.60;;;6.00;99.90;;;;;;4436367;32;20069;-65
2022/02/23 05:19:59;;;;;;;2.00;1.48;;;5.90;99.90;;;;;;4433729;32;20085;-65
2022/02/23 05:22:26;;;;;;;2.00;1.40;;;5.90;99.90;;;;;;4428330;32;20097;-65
2022/02/23 05:24:51;;;;;;;0.55;0.55;;;5.90;99.90;;;;;;4437919;32;20080;-65
2022/02/23 05:27:17;;;;;;;0.30;0.30;;;5.90;99.90;;;;;;4439663;32;20060;-65
2022/02/23 05:29:42;;;;;;;5.75;2.20;;;5.90;99.90;;;;;;4438832;32;20545;-65
2022/02/23 05:32:08;;;;;;;1.08;1.08;;;5.90;99.90;;;;;;4439316;32;20070;-65
2022/02/23 05:34:33;;;;;;;2.28;0.93;;;5.90;99.90;;;;;;4440326;32;20073;-65
2022/02/23 05:36:59;;;;;;;0.43;0.43;;;5.90;99.90;;;;;;4444361;32;20514;-65
2022/02/23 05:39:24;;;;;;;1.25;1.15;;;5.90;99.90;;;;;;4439801;32;20135;-65
2022/02/23 05:41:50;;;;;;;3.55;1.00;;;5.80;99.90;;;;;;4435696;32;20605;-65
2022/02/23 05:44:16;;;;;;;2.37;1.17;;;5.80;99.90;;;;;;4437374;32;20100;-64
2022/02/23 05:46:41;;;;;;;0.52;0.52;;;5.80;99.90;;;;;;4437318;32;20532;-65
2022/02/23 05:49:07;;;;;;;4.97;1.50;;;5.80;99.90;;;;;;4436173;32;20068;-65
2022/02/23 05:51:36;;;;;;;1.95;1.25;;;5.80;99.90;;;;;;4437392;32;20062;-65
2022/02/23 05:54:03;;;;;;;1.33;0.70;;;5.80;99.90;;;;;;4443328;32;20084;-65
2022/02/23 05:56:29;;;;;;;1.12;0.95;;;5.80;99.90;;;;;;4436592;32;20134;-65
2022/02/23 05:58:55;;;;;;;1.75;0.90;;;5.80;99.90;;;;;;4434799;32;20209;-64
2022/02/23 06:01:21;;;;;;;3.10;0.73;;;5.80;99.90;;;;;;4433684;32;20076;-64
2022/02/23 06:03:47;;;;;;;3.30;1.12;;;5.90;99.90;;;;;;4434422;32;20065;-65
2022/02/23 06:06:13;;;;;;;8.10;1.23;;;5.90;99.90;;;;;;4432878;32;20387;-65
2022/02/23 06:08:38;;;;;;;4.57;2.58;;;5.90;99.90;;;;;;4437315;32;20061;-65
2022/02/23 06:11:05;;;;;;;0.40;0.40;;;5.90;99.90;;;;;;4434100;32;20160;-65
2022/02/23 06:13:31;;;;;;;0.30;0.30;;;6.00;99.90;;;;;;4433186;32;20513;-65
2022/02/23 06:15:56;;;;;;;0.40;0.40;;;6.00;99.90;;;;;;4438399;32;20274;-65
2022/02/23 06:18:22;;;;;;;0.98;0.73;;;6.00;99.90;;;;;;4418961;32;20062;-65
2022/02/23 06:20:48;;;;;;;0.68;0.68;;;6.10;99.90;;;;;;4434377;32;20061;-65
2022/02/23 06:23:13;;;;;;;4.22;1.33;;;6.10;99.90;;;;;;4427065;32;20158;-65
2022/02/23 06:25:40;;;;;;;6.00;2.97;;;6.10;99.90;;;;;;4435062;32;20128;-65
2022/02/23 06:28:06;;;;;;;4.37;0.93;;;6.10;99.90;;;;;;4422515;32;20599;-65
2022/02/23 06:30:31;;;;;;;0.60;0.60;;;6.20;99.90;;;;;;4424505;32;20069;-65
2022/02/23 06:32:57;;;;;;;2.87;1.45;;;6.20;99.90;;;;;;4416691;32;20057;-65
2022/02/23 06:35:25;;;;;;;0.52;0.52;;;6.20;99.90;;;;;;4426974;32;20081;-65
2022/02/23 06:37:51;;;;;;;3.12;1.48;;;6.10;99.90;;;;;;4428553;32;20097;-65
2022/02/23 06:40:17;;;;;;;0.55;0.52;;;6.10;99.90;;;;;;4432943;32;20073;-65
2022/02/23 06:42:42;;;;;;;0.60;0.45;;;6.10;99.90;;;;;;4434094;32;20077;-65
2022/02/23 06:45:09;;;;;;;1.08;1.00;;;6.10;99.90;;;;;;4430587;32;20558;-65
2022/02/23 06:47:34;;;;;;;3.47;1.48;;;6.10;99.90;;;;;;4432204;32;20276;-65
2022/02/23 06:50:00;;;;;;;0.73;0.73;;;6.10;99.90;;;;;;4430390;32;20092;-65
2022/02/23 06:52:28;;;;;;;1.75;1.25;;;6.10;99.90;;;;;;4429466;32;20181;-65
2022/02/23 06:54:54;;;;;;;2.17;0.73;;;6.20;99.90;;;;;;4429024;32;20475;-64
2022/02/23 06:57:21;;;;;;;1.83;0.90;;;6.10;99.90;;;;;;4427541;32;20097;-65
2022/02/23 06:59:47;;;;;;;2.00;1.02;;;6.10;99.90;;;;;;4403332;32;20090;-67
2022/02/23 07:02:13;;;;;;;0.40;0.40;;;6.10;99.90;;;;;;4414217;32;20097;-65
2022/02/23 07:04:39;;;;;;;0.82;0.82;;;6.10;99.90;;;;;;4422459;32;20816;-66
2022/02/23 07:07:05;;;;;;;1.30;1.20;;;6.10;99.90;;;;;;4423045;32;20117;-65
2022/02/23 07:09:30;;;;;;;1.45;1.35;;;6.10;99.90;;;;;;4409101;32;20073;-64
2022/02/23 07:11:56;;;;;;;6.00;1.62;;;6.00;99.90;;;;;;4423076;32;20092;-65
2022/02/23 07:14:22;;;;;;;2.00;1.02;;;6.00;99.90;;;;;;4430584;32;20119;-64
2022/02/23 07:16:47;;;;;;;5.80;0.75;;;6.10;99.90;;;;;;4426626;32;20102;-65
2022/02/23 07:19:13;;;;;;;0.40;0.40;;;6.10;99.90;;;;;;4430773;32;20072;-65
2022/02/23 07:21:38;;;;;;;0.50;0.50;;;6.10;99.90;;;;;;4424808;32;20096;-65
2022/02/23 07:24:05;;;;;;;3.87;1.20;;;6.20;99.90;;;;;;4425001;32;20406;-66
2022/02/23 07:26:31;;;;;;;0.47;0.47;;;6.20;99.90;;;;;;4427287;32;20136;-65
2022/02/23 07:28:57;;;;;;;0.62;0.62;;;6.20;99.90;;;;;;4424341;32;20433;-64
2022/02/23 07:31:23;;;;;;;0.98;0.82;;;6.30;99.90;;;;;;4426597;32;20425;-65
2022/02/23 07:33:50;;;;;;;0.65;0.65;;;6.30;99.90;;;;;;4419466;32;110403;-63
2022/02/23 07:36:16;;;;;;;1.98;1.23;;;6.30;99.90;;;;;;4427577;32;20516;-66
2022/02/23 07:38:43;;;;;;;0.43;0.43;;;6.30;99.90;;;;;;4426651;32;20097;-65
2022/02/23 07:41:11;;;;;;;0.47;0.47;;;6.30;99.90;;;;;;4427490;32;20065;-65
2022/02/23 07:43:37;;;;;;;3.72;1.55;;;6.40;99.90;;;;;;4420189;32;20092;-65
2022/02/23 07:46:03;;;;;;;4.57;1.77;;;6.40;99.90;;;;;;4425536;32;20820;-65
2022/02/23 07:48:30;;;;;;;0.93;0.93;;;6.40;99.90;;;;;;4424603;32;20089;-65
2022/02/23 07:50:58;;;;;;;0.55;0.55;;;6.50;99.90;;;;;;4430399;32;20119;-65
2022/02/23 07:53:24;;;;;;;0.40;0.40;;;6.60;99.90;;;;;;4427198;32;20117;-66
2022/02/23 07:55:49;;;;;;;0.50;0.50;;;6.70;99.90;;;;;;4430748;32;20062;-65
2022/02/23 07:58:15;;;;;;;0.85;0.82;;;6.80;99.90;;;;;;4428415;32;20122;-66
2022/02/23 08:00:41;;;;;;;1.77;1.08;;;6.80;99.90;;;;;;4404196;32;20611;-65
2022/02/23 08:03:06;;;;;;;28.83;1.08;;;6.90;99.90;;;;;;4420453;32;20769;-66
2022/02/23 08:05:32;;;;;;;0.40;0.40;;;6.90;99.90;;;;;;4418401;32;20532;-66
2022/02/23 08:07:57;;;;;;;0.30;0.30;;;7.00;99.90;;;;;;4423689;32;20153;-66
2022/02/23 08:10:24;;;;;;;4.78;2.10;;;7.10;99.90;;;;;;4422690;32;20105;-66
2022/02/23 08:12:55;;;;;;;0.40;0.40;;;7.10;99.90;;;;;;4421488;32;20085;-66
2022/02/23 08:19:39;;;;;;;0.60;0.60;;;7.00;99.90;;;;;;4413403;32;20080;-66
2022/02/23 08:20:52;;;;;;;0.75;0.75;;;7.10;99.90;;;;;;4404970;32;20155;-66
2022/02/23 08:23:18;;;;;;;1.10;0.75;;;7.20;99.90;;;;;;4422172;32;20097;-66
2022/02/23 08:25:44;;;;;;;0.75;0.75;;;7.40;99.90;;;;;;4417968;32;20084;-66
2022/02/23 08:28:09;;;;;;;0.40;0.40;;;7.30;99.90;;;;;;4424263;32;20496;-66
2022/02/23 08:30:35;;;;;;;2.22;0.95;;;7.30;99.90;;;;;;4417601;32;20449;-66
2022/02/23 08:33:03;;;;;;;4.20;0.93;;;7.30;99.90;;;;;;4414254;32;20154;-66
2022/02/23 08:35:29;;;;;;;8.20;1.83;;;7.40;99.90;;;;;;4414720;32;20078;-67
2022/02/23 08:37:55;;;;;;;0.40;0.40;;;7.50;99.90;;;;;;4423983;32;20131;-67
2022/02/23 08:40:21;;;;;;;1.55;1.08;;;7.50;99.90;;;;;;4425424;32;20088;-66
2022/02/23 08:42:47;;;;;;;0.70;0.70;;;7.60;99.90;;;;;;4427185;32;20069;-67
2022/02/23 08:45:12;;;;;;;0.40;0.40;;;7.70;99.90;;;;;;4428010;32;20485;-66
2022/02/23 08:47:38;;;;;;;1.08;0.70;;;7.90;99.90;;;;;;4419210;32;20103;-66
2022/02/23 08:50:05;;;;;;;2.72;1.37;;;8.00;99.90;;;;;;4411235;32;20105;-67
2022/02/23 08:52:30;;;;;;;0.95;0.93;;;8.00;99.90;;;;;;4405145;32;20675;-65
2022/02/23 08:54:55;;;;;;;0.55;0.55;;;8.10;99.90;;;;;;4409889;32;20097;-64
2022/02/23 08:57:21;;;;;;;29.05;1.42;;;8.10;99.90;;;;;;4409152;32;21761;-64
2022/02/23 08:59:47;;;;;;;2.30;0.82;;;8.20;99.90;;;;;;4412022;32;20131;-66
2022/02/23 09:02:12;;;;;;;3.87;1.02;;;8.00;99.90;;;;;;4407425;32;20739;-66
2022/02/23 09:04:38;;;;;;;0.60;0.60;;;8.10;99.90;;;;;;4407774;32;21659;-66
2022/02/23 09:07:04;;;;;;;0.98;0.62;;;8.10;99.90;;;;;;4411997;32;20089;-66
2022/02/23 09:09:30;;;;;;;14.60;0.60;;;8.20;99.90;;;;;;4408368;32;20097;-66
2022/02/23 09:11:56;;;;;;;3.53;1.20;;;8.30;99.90;;;;;;4412074;32;20104;-66
2022/02/23 09:14:22;;;;;;;5.57;1.52;;;8.40;99.90;;;;;;4411334;32;20228;-65
2022/02/23 09:16:47;;;;;;;5.07;1.45;;;8.40;99.90;;;;;;4408418;32;20148;-66
2022/02/23 09:19:13;;;;;;;8.98;0.82;;;8.30;99.90;;;;;;4411443;32;22387;-65
2022/02/23 09:21:38;;;;;;;9.23;1.48;;;8.40;99.90;;;;;;4405877;32;20085;-65
2022/02/23 09:24:06;;;;;;;1.40;0.70;;;8.50;99.90;;;;;;4403609;32;20088;-66
2022/02/23 09:26:31;;;;;;;3.10;1.42;;;8.50;99.90;;;;;;4402300;32;20867;-65
2022/02/23 09:28:57;;;;;;;0.80;0.60;;;8.60;99.90;;;;;;4402677;32;20552;-65
2022/02/23 09:31:23;;;;;;;0.40;0.40;;;8.60;99.90;;;;;;4406280;32;20080;-66
2022/02/23 09:33:51;;;;;;;27.58;0.75;;;8.80;99.90;;;;;;4406685;32;20512;-66
2022/02/23 09:36:17;;;;;;;0.47;0.47;;;8.80;99.90;;;;;;4403292;32;20685;-66
2022/02/23 09:38:44;;;;;;;0.82;0.82;;;8.90;99.90;;;;;;4411310;32;20193;-65
2022/02/23 09:41:11;;;;;;;0.43;0.43;;;9.10;99.90;;;;;;4415186;32;20080;-65
2022/02/23 09:43:37;;;;;;;4.25;0.93;;;9.10;99.90;;;;;;4403383;32;20058;-65
2022/02/23 09:46:05;;;;;;;27.15;1.95;;;9.00;99.90;;;;;;4401309;32;20096;-66
2022/02/23 09:48:32;;;;;;;0.30;0.30;;;9.10;99.90;;;;;;4407909;32;20863;-66
2022/02/23 09:50:59;;;;;;;7.10;1.92;;;9.30;99.90;;;;;;4396457;32;20101;-66
2022/02/23 09:53:25;;;;;;;1.67;0.68;;;9.50;99.90;;;;;;4411645;32;20089;-65
2022/02/23 09:55:56;;;;;;;1.55;0.62;;;9.60;99.90;;;;;;4406834;32;20085;-64
2022/02/23 09:58:23;;;;;;;0.95;0.95;;;9.50;99.90;;;;;;4403972;32;20100;-64
2022/02/23 10:00:49;;;;;;;0.60;0.60;;;9.50;99.90;;;;;;4405965;32;20097;-66
2022/02/23 10:03:15;;;;;;;5.47;1.67;;;9.60;99.90;;;;;;4410057;32;20282;-66
2022/02/23 10:05:43;;;;;;;0.37;0.37;;;10.00;99.90;;;;;;4404882;32;20101;-66
2022/02/23 10:08:10;;;;;;;0.45;0.45;;;10.20;99.90;;;;;;4400045;32;20058;-66
2022/02/23 10:10:40;;;;;;;1.55;0.50;;;10.20;99.90;;;;;;4402588;32;20092;-66
2022/02/23 10:13:07;;;;;;;0.37;0.37;;;9.90;99.90;;;;;;4410878;32;20073;-66
2022/02/23 10:15:40;;;;;;;0.60;0.60;;;10.00;99.90;;;;;;4407509;32;20085;-66
2022/02/23 10:18:09;;;;;;;26.42;1.37;;;10.20;99.90;;;;;;4402570;32;20085;-66
2022/02/23 10:20:36;;;;;;;0.50;0.50;;;10.10;99.90;;;;;;4411399;32;20489;-66
2022/02/23 10:23:07;;;;;;;0.68;0.68;;;9.70;99.90;;;;;;4419861;32;20549;-67
2022/02/23 10:25:36;;;;;;;0.30;0.30;;;9.90;99.90;;;;;;4400732;32;20143;-66
2022/02/23 10:28:06;;;;;;;1.00;0.90;;;9.70;99.90;;;;;;4407948;32;20390;-66
2022/02/23 10:30:32;;;;;;;0.40;0.40;;;9.60;99.90;;;;;;4411452;32;20325;-67
2022/02/23 10:33:12;;;;;;;1.15;1.05;;;9.80;99.90;;;;;;4413794;32;20093;-68
2022/02/23 10:35:39;;;;;;;0.35;0.35;;;10.00;99.90;;;;;;4412529;32;20243;-68
2022/02/23 10:38:07;;;;;;;0.95;0.50;;;10.20;99.90;;;;;;4421645;32;20092;-67
2022/02/23 10:40:42;;;;;;;4.37;1.05;;;10.20;99.90;;;;;;4426059;32;20851;-67
2022/02/23 10:43:21;;;;;;;1.33;1.12;;;10.20;99.90;;;;;;4425724;32;20209;-67
2022/02/23 10:45:50;;;;;;;1.85;0.98;;;10.40;99.90;;;;;;4420167;32;20545;-68
2022/02/23 10:48:29;;;;;;;3.40;1.40;;;10.60;99.90;;;;;;4418327;32;20088;-68
2022/02/23 10:50:55;;;;;;;0.77;0.77;;;10.40;99.90;;;;;;4419360;32;20069;-67
2022/02/23 10:53:29;;;;;;;1.55;1.05;;;10.30;99.90;;;;;;4415275;32;20130;-67
2022/02/23 10:55:55;;;;;;;3.15;1.02;;;10.40;99.90;;;;;;4424644;32;21103;-67
2022/02/23 10:58:24;;;;;;;20.05;1.70;;;10.30;99.90;;;;;;4422765;32;20103;-67
2022/02/23 11:00:52;;;;;;;2.50;0.75;;;10.40;99.90;;;;;;4413199;32;20089;-66
2022/02/23 11:03:18;;;;;;;0.55;0.55;;;10.30;99.90;;;;;;4406551;32;20144;-66
2022/02/23 11:05:47;;;;;;;1.23;0.80;;;10.30;99.90;;;;;;4412965;32;20088;-66
2022/02/23 11:08:14;;;;;;;0.75;0.75;;;10.30;99.90;;;;;;4418724;32;20109;-66
2022/02/23 11:10:43;;;;;;;2.05;0.88;;;10.50;99.90;;;;;;4422580;32;20609;-67
2022/02/23 11:13:12;;;;;;;6.22;0.57;;;10.70;99.90;;;;;;4419073;32;20140;-66
2022/02/23 11:15:43;;;;;;;7.62;2.00;;;10.90;99.90;;;;;;4411952;32;20097;-66
2022/02/23 11:18:12;;;;;;;0.40;0.40;;;10.50;99.90;;;;;;4404226;32;20882;-66
2022/02/23 11:20:39;;;;;;;4.80;1.65;;;10.50;99.90;;;;;;4409390;32;20109;-66
2022/02/23 11:23:05;;;;;;;8.07;0.62;;;10.80;99.90;;;;;;4405926;32;20155;-66
2022/02/23 11:25:36;;;;;;;18.33;0.85;;;10.90;99.90;;;;;;4419082;32;20086;-66
2022/02/23 11:28:21;;;;;;;;;;;11.10;99.90;;;;;;4418870;32;20501;-66
2022/02/23 11:30:49;;;;;;;1.45;0.95;;;11.30;99.90;;;;;;4413601;32;19960;-66
2022/02/23 11:33:20;;;;;;;8.30;0.80;;;11.30;99.90;;;;;;4421955;32;20164;-66
2022/02/23 11:35:49;;;;;;;6.10;0.55;;;11.40;99.90;;;;;;4425134;32;20102;-66
2022/02/23 11:38:17;;;;;;;0.93;0.93;;;11.50;99.90;;;;;;4428701;32;20612;-67
2022/02/23 11:40:52;;;;;;;0.90;0.85;;;11.60;99.90;;;;;;4432863;32;20517;-65
2022/02/23 11:43:24;;;;;;;9.20;0.62;;;11.40;99.90;;;;;;4426186;32;20227;-66
2022/02/23 11:45:54;;;;;;;0.85;0.68;;;11.20;99.90;;;;;;4416682;32;20116;-66
2022/02/23 11:48:20;;;;;;;0.50;0.50;;;11.30;99.90;;;;;;4425328;32;20077;-65
2022/02/23 11:51:01;;;;;;;0.45;0.45;;;11.30;99.90;;;;;;4419626;32;20057;-65
2022/02/23 11:53:40;;;;;;;2.05;0.55;;;11.30;99.90;;;;;;4414142;32;20999;-65
2022/02/23 11:56:11;;;;;;;0.62;0.62;;;11.00;99.90;;;;;;4409565;32;20105;-65
2022/02/23 11:58:47;;;;;;;0.57;0.57;;;10.80;99.90;;;;;;4413287;32;20125;-65
2022/02/23 12:01:13;;;;;;;1.65;1.02;;;10.80;99.90;;;;;;4422129;32;20073;-65
2022/02/23 12:03:42;;;;;;;1.25;0.62;;;11.00;99.90;;;;;;4426401;32;20119;-65
2022/02/23 12:06:09;;;;;;;0.40;0.40;;;10.90;99.90;;;;;;4424103;32;20104;-65
2022/02/23 12:08:42;;;;;;;0.50;0.50;;;10.90;99.90;;;;;;4413692;32;20441;-66
2022/02/23 12:11:13;;;;;;;1.27;0.73;;;11.50;99.90;;;;;;4403133;32;20149;-66
2022/02/23 12:13:49;;;;;;;0.37;0.37;;;12.40;99.90;;;;;;4412788;32;20077;-65
2022/02/23 12:16:22;;;;;;;0.70;0.70;;;13.20;99.90;;;;;;4414507;32;20355;-65
2022/02/23 12:18:50;;;;;;;0.93;0.55;;;13.40;99.20;;;;;;4418628;32;20076;-66
2022/02/23 12:21:17;;;;;;;0.47;0.47;;;12.90;99.70;;;;;;4418211;32;20614;-65
2022/02/23 12:23:45;;;;;;;0.40;0.40;;;12.80;99.90;;;;;;4414184;32;20176;-65
2022/02/23 12:26:20;;;;;;;0.60;0.60;;;13.00;99.90;;;;;;4398685;32;20774;-65
2022/02/23 12:28:48;;;;;;;0.65;0.65;;;12.90;99.30;;;;;;4414561;32;20512;-65
2022/02/23 12:31:18;;;;;;;4.20;1.10;;;12.00;99.90;;;;;;4417500;32;20109;-65
2022/02/23 12:33:45;;;;;;;0.50;0.50;;;11.90;99.90;;;;;;4419891;32;20089;-65
2022/02/23 12:36:14;;;;;;;7.12;1.05;;;12.40;99.90;;;;;;4417397;32;20060;-65
2022/02/23 12:38:46;;;;;;;3.70;0.75;;;13.00;99.90;;;;;;4418657;32;20100;-64
2022/02/23 12:41:20;;;;;;;4.78;0.80;;;13.00;98.60;;;;;;4407716;32;20639;-64
2022/02/23 12:44:06;;;;;;;0.55;0.55;;;13.10;98.10;;;;;;4420078;32;20093;-64
2022/02/23 12:46:35;;;;;;;2.22;1.35;;;13.10;97.50;;;;;;4412676;32;20168;-65
2022/02/23 12:49:03;;;;;;;0.45;0.45;;;12.60;99.30;;;;;;4417033;32;20116;-65
2022/02/23 12:51:30;;;;;;;0.50;0.50;;;12.90;99.10;;;;;;4422305;32;20072;-65
2022/02/23 12:53:58;;;;;;;0.93;0.93;;;12.80;98.30;;;;;;4424392;32;20138;-65
2022/02/23 12:56:27;;;;;;;0.60;0.60;;;12.80;98.50;;;;;;4419856;32;20208;-65